Time;durP1;ratioP1;P1;durP2;ratioP2;P2;SDS_P1;SDS_P2;PMS_P1;PMS_P2;Temp;Humidity;BMP_temperature;BMP_pressure;BME280_temperature;BME280_humidity;BME280_pressure;Samples;Min_cycle;Max_cycle;Signal;HPM_P1;HPM_P2
2022/01/02 00:01:12;;;;;;;;;17.00;17.00;;;;;14.64;61.59;101677.28;4995012;28;45490;-80
2022/01/02 00:03:40;;;;;;;;;24.67;17.33;;;;;14.65;60.72;101673.66;4986289;28;45535;-80
2022/01/02 00:06:07;;;;;;;;;18.67;17.00;;;;;14.59;60.57;101658.72;4975366;28;46273;-80
2022/01/02 00:08:42;;;;;;;;;17.00;16.00;;;;;14.51;60.49;101647.41;4990457;28;45384;-80
2022/01/02 00:11:12;;;;;;;;;18.67;17.00;;;;;14.59;61.10;101669.44;4974384;28;45439;-80
2022/01/02 00:13:45;;;;;;;;;17.33;17.00;;;;;14.73;61.59;101701.03;4975611;28;45499;-80
2022/01/02 00:16:15;;;;;;;;;20.00;17.67;;;;;14.71;61.71;101692.16;4991964;28;45453;-80
2022/01/02 00:18:49;;;;;;;;;18.33;17.00;;;;;14.70;61.43;101688.63;4994616;28;45482;-80
2022/01/02 00:21:17;;;;;;;;;20.67;18.00;;;;;14.30;61.07;101634.03;4995086;28;45426;-80
2022/01/02 00:23:59;;;;;;;;;20.33;16.00;;;;;14.69;60.74;101694.91;5000400;28;45436;-80
2022/01/02 00:26:34;;;;;;;;;18.33;17.00;;;;;14.70;60.76;101685.03;5008609;28;46240;-80
2022/01/02 00:29:03;;;;;;;;;21.67;18.67;;;;;14.71;60.72;101676.06;4994372;28;45496;-80
2022/01/02 00:31:31;;;;;;;;;20.67;17.00;;;;;14.72;61.06;101673.28;4994750;28;45435;-80
2022/01/02 00:33:56;;;;;;;;;21.67;17.33;;;;;14.43;60.69;101636.19;4994793;28;45527;-80
2022/01/02 00:36:21;;;;;;;;;17.33;17.33;;;;;14.60;60.73;101656.91;4991554;28;46305;-80
2022/01/02 00:38:47;;;;;;;;;17.00;17.00;;;;;14.70;60.96;101672.53;4974559;28;45268;-80
2022/01/02 00:41:16;;;;;;;;;16.33;16.33;;;;;14.49;60.65;101643.94;4975470;28;45319;-80
2022/01/02 00:43:47;;;;;;;;;19.33;18.67;;;;;14.46;61.21;101641.41;4990379;28;45496;-80
2022/01/02 00:46:14;;;;;;;;;16.67;15.33;;;;;14.45;60.62;101634.31;4974582;28;45507;-80
2022/01/02 00:48:44;;;;;;;;;19.00;19.00;;;;;14.64;60.76;101670.09;4974197;28;45762;-80
2022/01/02 00:51:20;;;;;;;;;15.33;13.33;;;;;14.40;60.88;101634.53;4992413;28;45609;-80
2022/01/02 00:53:47;;;;;;;;;14.33;14.33;;;;;14.64;61.47;101666.56;5013984;28;45618;-80
2022/01/02 00:56:18;;;;;;;;;15.33;15.33;;;;;14.53;61.39;101662.50;5012627;28;46672;-80
2022/01/02 00:58:51;;;;;;;;;15.00;15.00;;;;;14.57;61.27;101663.28;5014028;28;45449;-80
2022/01/02 01:01:27;;;;;;;;;17.67;17.00;;;;;14.36;60.93;101623.03;5012314;28;45460;-80
2022/01/02 01:03:53;;;;;;;;;21.67;16.67;;;;;14.50;61.24;101646.56;5013896;28;45422;-80
2022/01/02 01:06:25;;;;;;;;;16.00;15.00;;;;;14.47;61.49;101635.97;5012278;28;48435;-80
2022/01/02 01:08:56;;;;;;;;;19.00;15.33;;;;;14.13;61.48;101575.81;5013887;28;45455;-80
2022/01/02 01:11:25;;;;;;;;;15.00;15.00;;;;;14.47;62.09;101637.75;5014546;28;46372;-80
2022/01/02 01:13:51;;;;;;;;;15.33;14.00;;;;;14.42;61.01;101623.69;5014183;28;45441;-80
2022/01/02 01:16:18;;;;;;;;;17.33;16.33;;;;;14.09;61.50;101551.91;5002791;28;45415;-80
2022/01/02 01:18:44;;;;;;;;;14.33;14.33;;;;;14.44;61.07;101598.53;4994120;28;45337;-80
2022/01/02 01:21:09;;;;;;;;;14.67;14.67;;;;;14.33;61.44;101585.66;4994402;28;45341;-80
2022/01/02 01:23:35;;;;;;;;;17.33;14.00;;;;;14.44;61.56;101603.03;4994410;28;45430;-80
2022/01/02 01:26:06;;;;;;;;;14.33;13.33;;;;;14.29;61.48;101565.28;4994027;28;46673;-80
2022/01/02 01:28:31;;;;;;;;;15.33;14.33;;;;;14.29;61.14;101576.00;4994038;28;45523;-80
2022/01/02 01:30:57;;;;;;;;;16.67;15.00;;;;;14.31;61.46;101586.66;4993535;28;45861;-80
2022/01/02 01:33:22;;;;;;;;;15.33;15.33;;;;;14.06;61.21;101549.38;4994462;28;45388;-80
2022/01/02 01:35:48;;;;;;;;;14.33;14.33;;;;;14.17;61.28;101573.00;4993542;28;45463;-80
2022/01/02 01:38:13;;;;;;;;;18.00;16.33;;;;;14.14;61.56;101564.16;4993573;28;45834;-80
2022/01/02 01:41:08;;;;;;;;;16.00;16.00;;;;;14.30;61.73;101596.50;4996458;28;45362;-80
2022/01/02 01:43:52;;;;;;;;;19.00;18.00;;;;;14.34;61.54;101586.50;5039121;28;45608;-80
2022/01/02 01:46:18;;;;;;;;;16.00;16.00;;;;;14.12;61.48;101557.13;5057478;28;45417;-80
2022/01/02 01:48:55;;;;;;;;;15.00;10.00;;;;;14.08;61.30;101551.03;5042662;28;45385;-80
2022/01/02 01:51:21;;;;;;;;;13.33;11.67;;;;;14.28;61.39;101582.31;5038164;28;45578;-80
2022/01/02 01:53:46;;;;;;;;;15.33;15.00;;;;;14.28;61.27;101571.59;5037364;28;45642;-80
2022/01/02 01:56:12;;;;;;;;;17.67;17.67;;;;;14.29;61.48;101561.72;5037251;28;46138;-80
2022/01/02 01:58:37;;;;;;;;;12.00;12.00;;;;;14.30;61.07;101572.34;5037589;28;45473;-80
2022/01/02 02:01:02;;;;;;;;;18.00;14.67;;;;;14.15;60.85;101554.31;5037125;28;45426;-80
2022/01/02 02:03:28;;;;;;;;;18.33;16.00;;;;;14.17;61.23;101549.75;5037813;28;45788;-80
2022/01/02 02:05:54;;;;;;;;;13.33;12.00;;;;;14.00;61.36;101522.81;5044355;28;46004;-80
2022/01/02 02:08:24;;;;;;;;;14.33;12.00;;;;;14.26;61.28;101565.41;5057581;28;45314;-80
2022/01/02 02:10:56;;;;;;;;;16.33;14.67;;;;;14.26;61.24;101556.50;5057682;28;45512;-80
2022/01/02 02:13:22;;;;;;;;;16.00;15.67;;;;;14.27;61.02;101558.25;5057780;28;45565;-80
2022/01/02 02:15:52;;;;;;;;;15.33;13.33;;;;;14.27;61.24;101556.41;5056887;28;45851;-80
2022/01/02 02:18:18;;;;;;;;;18.33;16.00;;;;;14.24;60.99;101526.22;5053347;28;45516;-80
2022/01/02 02:20:44;;;;;;;;;13.67;11.00;;;;;14.23;61.13;101529.81;5013309;28;45753;-80
2022/01/02 02:23:12;;;;;;;;;14.33;14.33;;;;;14.27;61.04;101534.97;4996186;28;45571;-80
2022/01/02 02:25:38;;;;;;;;;14.33;12.67;;;;;14.18;61.13;101511.25;4995939;28;46159;-80
2022/01/02 02:28:07;;;;;;;;;13.00;12.00;;;;;14.08;61.14;101481.34;4995945;28;45954;-80
2022/01/02 02:30:35;;;;;;;;;14.67;14.67;;;;;14.26;61.10;101506.44;5007788;28;45303;-80
2022/01/02 02:33:03;;;;;;;;;10.67;10.67;;;;;14.29;61.01;101514.31;4977171;28;45333;-80
2022/01/02 02:35:30;;;;;;;;;16.00;14.33;;;;;14.30;61.12;101513.34;4979858;28;46148;-80
2022/01/02 02:37:56;;;;;;;;;9.33;9.00;;;;;13.96;61.02;101455.09;4996128;28;45485;-80
2022/01/02 02:40:27;;;;;;;;;15.33;11.00;;;;;14.27;61.10;101493.88;4996028;28;45577;-80
2022/01/02 02:43:01;;;;;;;;;15.00;13.33;;;;;14.20;61.03;101481.72;4999620;28;45623;-80
2022/01/02 02:51:16;;;;;;;;;14.00;11.67;;;;;14.21;61.16;101481.66;5016021;28;45441;-79
2022/01/02 02:53:45;;;;;;;;;11.33;10.00;;;;;14.20;61.22;101471.84;5016215;28;45426;-80
2022/01/02 02:56:19;;;;;;;;;13.67;11.00;;;;;14.12;61.14;101466.84;5003812;28;45606;-88
2022/01/02 02:58:45;;;;;;;;;13.33;13.00;;;;;14.16;61.21;101478.28;4995979;28;45452;-88
2022/01/02 03:01:14;;;;;;;;;15.00;13.67;;;;;14.13;61.29;101478.44;4996413;28;45259;-87
2022/01/02 03:03:40;;;;;;;;;12.33;10.67;;;;;14.14;61.27;101483.75;4996378;28;45180;-87
2022/01/02 03:06:06;;;;;;;;;14.00;13.33;;;;;13.95;61.07;101448.00;4996370;28;45263;-88
2022/01/02 03:08:33;;;;;;;;;14.33;13.67;;;;;14.07;61.37;101498.38;4992810;28;45412;-87
2022/01/02 03:10:58;;;;;;;;;15.33;12.33;;;;;13.97;60.70;101455.97;4976722;28;45527;-87
2022/01/02 03:13:24;;;;;;;;;17.00;15.33;;;;;13.90;60.81;101413.38;4976302;28;45504;-87
2022/01/02 03:15:50;;;;;;;;;11.00;10.00;;;;;14.17;60.90;101463.97;4976486;28;45369;-88
2022/01/02 03:18:15;;;;;;;;;19.67;14.33;;;;;14.08;60.65;101434.91;4976427;28;45384;-87
2022/01/02 03:20:41;;;;;;;;;11.67;10.67;;;;;14.31;60.44;101476.72;4979337;28;45470;-87
2022/01/02 03:23:06;;;;;;;;;12.33;12.33;;;;;14.28;60.61;101475.06;4996508;28;45301;-88
2022/01/02 03:25:31;;;;;;;;;9.33;9.33;;;;;14.04;60.32;101423.44;4995726;28;45353;-87
2022/01/02 03:27:56;;;;;;;;;16.33;13.00;;;;;14.35;60.58;101494.38;4995922;28;45294;-88
2022/01/02 03:30:22;;;;;;;;;13.33;13.33;;;;;14.33;60.71;101488.25;4995923;28;45295;-88
2022/01/02 03:32:47;;;;;;;;;11.33;11.33;;;;;14.35;60.31;101499.75;4996266;28;45332;-87
2022/01/02 03:35:12;;;;;;;;;9.00;9.00;;;;;14.32;60.47;101484.66;4994552;28;52882;-88
2022/01/02 03:37:38;;;;;;;;;10.33;9.33;;;;;14.39;60.66;101492.44;4995837;28;45365;-87
2022/01/02 03:40:06;;;;;;;;;12.33;11.00;;;;;14.29;60.00;101475.91;4995990;28;45439;-88
2022/01/02 03:42:32;;;;;;;;;10.00;9.67;;;;;14.25;60.33;101456.41;4995529;28;45625;-88
2022/01/02 03:44:58;;;;;;;;;10.33;9.33;;;;;14.33;59.67;101461.44;4995172;28;45920;-88
2022/01/02 03:47:23;;;;;;;;;9.67;9.67;;;;;14.41;59.79;101458.38;4994611;28;45433;-88
2022/01/02 03:49:49;;;;;;;;;10.33;10.33;;;;;14.39;59.57;101446.84;5007971;28;45308;-87
2022/01/02 03:52:14;;;;;;;;;14.33;13.33;;;;;14.56;60.57;101469.25;5015809;28;45402;-87
2022/01/02 03:54:39;;;;;;;;;10.00;8.00;;;;;14.31;59.79;101393.59;5014664;28;50233;-88
2022/01/02 03:57:05;;;;;;;;;14.00;11.33;;;;;14.55;59.90;101448.72;5013988;28;45381;-88
2022/01/02 03:59:30;;;;;;;;;12.67;11.33;;;;;14.61;59.42;101444.88;5015188;28;45288;-87
2022/01/02 04:01:56;;;;;;;;;12.00;9.67;;;;;14.56;60.17;101446.91;5015160;28;45438;-87
2022/01/02 04:04:21;;;;;;;;;15.00;10.33;;;;;14.44;59.18;101409.94;5002398;28;45371;-87
2022/01/02 04:06:46;;;;;;;;;10.67;10.67;;;;;14.26;59.51;101395.63;4995460;28;45305;-88
2022/01/02 04:09:12;;;;;;;;;10.00;10.00;;;;;14.35;59.26;101395.16;4995713;28;45171;-88
2022/01/02 04:11:37;;;;;;;;;15.00;13.00;;;;;14.48;59.02;101438.34;4995274;28;45468;-88
2022/01/02 04:14:03;;;;;;;;;9.67;9.67;;;;;14.62;59.15;101462.72;4995388;28;45385;-88
2022/01/02 04:16:28;;;;;;;;;8.67;8.67;;;;;14.50;59.26;101445.38;4994992;28;45303;-88
2022/01/02 04:18:53;;;;;;;;;9.33;9.33;;;;;14.16;58.68;101360.31;4995622;28;45238;-88
2022/01/02 04:21:18;;;;;;;;;11.00;9.00;;;;;14.59;59.10;101425.31;4996040;28;45240;-88
2022/01/02 04:23:44;;;;;;;;;10.33;10.33;;;;;14.59;59.27;101435.19;4995098;28;54156;-87
2022/01/02 04:26:09;;;;;;;;;12.00;10.67;;;;;14.60;59.10;101450.31;4994846;28;50871;-88
2022/01/02 04:28:34;;;;;;;;;8.00;8.00;;;;;14.20;59.63;101371.78;4993589;28;48558;-88
2022/01/02 04:31:00;;;;;;;;;13.33;12.33;;;;;14.47;60.36;101424.06;4995619;28;45264;-88
2022/01/02 04:33:25;;;;;;;;;10.00;9.33;;;;;14.54;59.35;101416.63;4986511;28;45397;-88
2022/01/02 04:35:50;;;;;;;;;10.33;10.33;;;;;14.43;58.97;101384.06;5005539;28;45263;-88
2022/01/02 04:38:16;;;;;;;;;11.67;11.67;;;;;14.30;58.24;101351.59;5000337;28;45210;-88
2022/01/02 04:40:41;;;;;;;;;15.67;14.00;;;;;14.59;58.75;101390.44;5008968;28;45562;-88
2022/01/02 04:43:07;;;;;;;;;10.67;10.67;;;;;14.57;58.58;101403.06;4998005;28;45848;-88
2022/01/02 04:45:33;;;;;;;;;12.00;10.67;;;;;14.55;58.75;101407.63;5004292;28;45326;-88
2022/01/02 04:47:59;;;;;;;;;9.00;9.00;;;;;14.33;58.81;101373.78;5013632;28;45417;-88
2022/01/02 04:50:24;;;;;;;;;10.00;10.00;;;;;14.39;58.76;101382.47;5012589;28;45503;-88
2022/01/02 04:52:49;;;;;;;;;10.33;8.33;;;;;14.51;58.93;101396.13;4999825;28;46129;-87
2022/01/02 04:55:15;;;;;;;;;13.33;9.33;;;;;14.40;58.99;101376.16;4993217;28;45434;-87
2022/01/02 04:57:41;;;;;;;;;10.33;9.33;;;;;14.26;59.39;101350.03;4992952;28;45399;-88
2022/01/02 05:00:07;;;;;;;;;3.33;3.00;;;;;14.44;59.93;101364.34;4992371;28;45559;-88
2022/01/02 05:02:33;;;;;;;;;9.00;9.00;;;;;14.41;59.31;101368.03;4993058;28;45406;-87
2022/01/02 05:04:58;;;;;;;;;10.00;10.00;;;;;14.36;59.62;101352.19;4993365;28;45335;-88
2022/01/02 05:07:24;;;;;;;;;10.33;10.33;;;;;14.33;59.92;101365.75;4993206;28;45394;-88
2022/01/02 05:09:49;;;;;;;;;8.33;7.67;;;;;13.99;59.67;101304.88;4993201;28;45509;-87
2022/01/02 05:12:14;;;;;;;;;16.00;13.00;;;;;14.24;59.42;101389.47;4993384;28;45337;-88
2022/01/02 05:14:40;;;;;;;;;14.00;11.00;;;;;14.14;59.27;101364.88;4994152;28;45180;-87
2022/01/02 05:17:05;;;;;;;;;11.67;11.67;;;;;14.13;59.82;101374.75;4996794;28;45320;-89
2022/01/02 05:19:32;;;;;;;;;9.67;9.67;;;;;14.22;59.50;101397.56;4996950;28;45528;-89
2022/01/02 05:21:57;;;;;;;;;12.67;11.33;;;;;14.22;59.50;101384.16;4995027;28;48266;-88
2022/01/02 05:24:23;;;;;;;;;14.00;12.33;;;;;14.18;59.43;101371.84;5010390;28;45387;-89
2022/01/02 05:26:49;;;;;;;;;13.33;10.33;;;;;14.28;59.54;101374.94;5016237;28;45334;-88
2022/01/02 05:29:15;;;;;;;;;9.33;9.33;;;;;14.20;59.14;101364.59;5016724;28;45344;-88
2022/01/02 05:31:40;;;;;;;;;9.00;9.00;;;;;14.31;59.33;101370.31;5015902;28;45839;-88
2022/01/02 05:34:06;;;;;;;;;10.00;10.00;;;;;14.24;59.75;101352.78;5012746;28;45433;-88
2022/01/02 05:36:31;;;;;;;;;9.67;9.33;;;;;14.10;59.65;101323.97;5003993;28;45352;-88
2022/01/02 05:38:56;;;;;;;;;7.00;7.00;;;;;14.20;60.57;101343.16;4950519;28;1309287;-88
2022/01/02 05:41:22;;;;;;;;;10.00;8.67;;;;;14.40;59.42;101373.47;4996748;28;46358;-88
2022/01/02 05:43:47;;;;;;;;;11.33;9.67;;;;;14.07;59.80;101300.00;4995840;28;45266;-88
2022/01/02 05:46:13;;;;;;;;;10.33;9.00;;;;;14.41;60.01;101357.31;4997159;28;45285;-88
2022/01/02 05:48:38;;;;;;;;;13.00;11.00;;;;;14.44;59.35;101359.81;4997497;28;45231;-89
2022/01/02 05:51:04;;;;;;;;;11.00;11.00;;;;;14.51;59.47;101373.81;4996449;28;45293;-88
2022/01/02 05:53:30;;;;;;;;;10.67;10.00;;;;;14.52;59.42;101371.06;4995473;28;45255;-89
2022/01/02 05:55:55;;;;;;;;;9.67;9.67;;;;;14.53;59.24;101371.91;4997149;28;45553;-88
2022/01/02 05:58:21;;;;;;;;;9.00;8.00;;;;;14.30;59.58;101336.38;4997613;28;45257;-88
2022/01/02 06:00:47;;;;;;;;;9.67;7.67;;;;;14.55;58.71;101381.66;4996632;28;45523;-89
2022/01/02 06:03:12;;;;;;;;;9.67;9.67;;;;;14.43;58.55;101358.09;4996870;28;45499;-88
2022/01/02 06:05:37;;;;;;;;;8.33;8.33;;;;;14.56;58.42;101369.09;4996576;28;45327;-88
2022/01/02 06:08:03;;;;;;;;;10.33;7.67;;;;;14.27;57.95;101327.63;4997294;28;45565;-88
2022/01/02 06:10:28;;;;;;;;;6.67;6.67;;;;;14.52;57.80;101379.09;4995440;28;48070;-89
2022/01/02 06:12:53;;;;;;;;;5.00;5.00;;;;;14.51;58.09;101382.72;4996419;28;45974;-89
2022/01/02 06:15:19;;;;;;;;;9.67;7.33;;;;;14.31;58.37;101324.72;5005348;28;45794;-89
2022/01/02 06:17:44;;;;;;;;;9.67;8.00;;;;;14.55;57.86;101359.34;5004597;28;45387;-89
2022/01/02 06:20:10;;;;;;;;;8.67;5.67;;;;;14.47;57.62;101329.31;5006647;28;46240;-89
2022/01/02 06:22:35;;;;;;;;;8.67;5.00;;;;;14.54;57.55;101344.19;5007773;28;45394;-88
2022/01/02 06:25:00;;;;;;;;;7.00;7.00;;;;;14.57;57.76;101344.03;5014943;28;45841;-88
2022/01/02 06:27:26;;;;;;;;;9.00;9.00;;;;;14.44;58.29;101322.28;5008342;28;45386;-89
2022/01/02 06:29:51;;;;;;;;;9.33;8.00;;;;;14.75;58.85;101361.03;5007370;28;46210;-89
2022/01/02 06:32:16;;;;;;;;;8.33;7.33;;;;;14.40;58.97;101303.75;4999731;28;45441;-89
2022/01/02 06:34:44;;;;;;;;;7.67;7.67;;;;;14.64;58.67;101353.50;5004374;28;45490;-88
2022/01/02 06:37:09;;;;;;;;;5.00;5.00;;;;;14.60;59.03;101349.22;5012304;28;45319;-89
2022/01/02 06:39:35;;;;;;;;;7.33;7.33;;;;;14.77;58.07;101392.19;5003844;28;46198;-88
2022/01/02 06:42:00;;;;;;;;;7.00;6.67;;;;;14.72;57.95;101382.63;5004578;28;45320;-88
2022/01/02 06:44:25;;;;;;;;;8.00;7.00;;;;;14.86;58.10;101393.50;5007935;28;45523;-89
2022/01/02 06:46:51;;;;;;;;;10.67;7.67;;;;;14.64;57.94;101352.66;5008185;28;45480;-89
2022/01/02 06:49:16;;;;;;;;;6.33;6.33;;;;;14.81;57.38;101376.78;5004119;28;45316;-88
2022/01/02 06:51:41;;;;;;;;;8.33;6.67;;;;;14.74;57.62;101365.50;5004068;28;45229;-88
2022/01/02 06:54:07;;;;;;;;;7.67;6.33;;;;;14.76;57.96;101381.53;5005129;28;45351;-88
2022/01/02 06:56:32;;;;;;;;;8.33;7.33;;;;;14.89;57.60;101412.16;5014403;28;45389;-88
2022/01/02 06:58:57;;;;;;;;;9.67;8.67;;;;;14.63;58.14;101364.31;5007242;28;45387;-88
2022/01/02 07:01:23;;;;;;;;;6.67;6.67;;;;;14.66;57.89;101373.09;5006776;28;45316;-88
2022/01/02 07:03:48;;;;;;;;;6.33;6.33;;;;;14.77;57.26;101400.25;5006802;28;48153;-89
2022/01/02 07:06:13;;;;;;;;;8.33;8.00;;;;;14.82;58.01;101409.84;5005951;28;45599;-88
2022/01/02 07:08:38;;;;;;;;;9.33;7.67;;;;;14.75;58.25;101395.91;5003836;28;45406;-88
2022/01/02 07:11:05;;;;;;;;;10.67;9.00;;;;;14.85;58.33;101407.91;4996162;28;45459;-88
2022/01/02 07:13:30;;;;;;;;;7.33;7.33;;;;;14.90;58.07;101405.84;5012343;28;45245;-87
2022/01/02 07:15:56;;;;;;;;;8.67;8.00;;;;;14.84;57.77;101403.47;4996616;28;45673;-88
2022/01/02 07:18:21;;;;;;;;;8.67;6.33;;;;;14.92;58.55;101400.41;5001338;28;46033;-87
2022/01/02 07:20:46;;;;;;;;;10.33;8.00;;;;;14.94;57.83;101411.94;5009507;28;45425;-87
2022/01/02 07:23:12;;;;;;;;;7.33;7.33;;;;;14.92;57.78;101403.94;5015792;28;45315;-87
2022/01/02 07:25:37;;;;;;;;;8.33;7.67;;;;;14.73;58.19;101376.31;5015813;28;45440;-88
2022/01/02 07:28:02;;;;;;;;;9.00;8.33;;;;;14.61;57.89;101353.66;5015602;28;46011;-88
2022/01/02 07:30:28;;;;;;;;;8.00;4.67;;;;;14.74;58.31;101386.09;5011018;28;45512;-88
2022/01/02 07:32:54;;;;;;;;;8.33;6.67;;;;;14.90;58.05;101408.53;4995649;28;45376;-88
2022/01/02 07:35:19;;;;;;;;;6.67;6.67;;;;;14.80;57.96;101393.84;4996185;28;45365;-88
2022/01/02 07:37:44;;;;;;;;;7.33;7.33;;;;;14.93;58.20;101410.19;4994556;28;45345;-88
2022/01/02 07:40:10;;;;;;;;;8.33;7.33;;;;;14.67;58.31;101372.13;4995606;28;45309;-88
2022/01/02 07:42:35;;;;;;;;;8.00;8.00;;;;;14.90;58.31;101411.22;4995674;28;45479;-88
2022/01/02 07:45:01;;;;;;;;;9.00;8.33;;;;;14.81;58.47;101406.31;4996382;28;45355;-86
2022/01/02 07:47:27;;;;;;;;;9.00;8.00;;;;;14.60;58.39;101380.56;4994809;28;45571;-85
2022/01/02 07:49:52;;;;;;;;;9.67;9.67;;;;;14.68;59.03;101416.81;4999888;28;45943;-87
2022/01/02 07:52:18;;;;;;;;;8.33;6.67;;;;;14.49;59.04;101386.41;5004717;28;49176;-86
2022/01/02 07:54:43;;;;;;;;;7.67;6.00;;;;;14.53;59.11;101407.66;5005574;28;45657;-86
2022/01/02 07:57:08;;;;;;;;;8.33;8.33;;;;;14.48;59.64;101401.66;4976024;28;45978;-86
2022/01/02 07:59:34;;;;;;;;;4.00;4.00;;;;;14.54;59.75;101420.19;4975709;28;45770;-85
2022/01/02 08:01:59;;;;;;;;;12.33;7.33;;;;;14.59;59.52;101444.09;4975606;28;45611;-88
2022/01/02 08:04:25;;;;;;;;;7.67;6.00;;;;;14.42;59.45;101418.06;4976157;28;45385;-87
2022/01/02 08:06:50;;;;;;;;;10.00;9.00;;;;;14.55;59.58;101451.41;4975660;28;46007;-88
2022/01/02 08:09:15;;;;;;;;;10.67;8.00;;;;;14.52;60.07;101454.22;4975981;28;45687;-86
2022/01/02 08:11:41;;;;;;;;;9.67;8.67;;;;;14.66;59.84;101490.28;4974091;28;45424;-86
2022/01/02 08:14:06;;;;;;;;;8.33;8.33;;;;;14.62;60.10;101476.13;4976121;28;45451;-86
2022/01/02 08:16:32;;;;;;;;;9.33;7.00;;;;;14.53;60.38;101469.34;4973782;28;48278;-86
2022/01/02 08:18:57;;;;;;;;;9.67;8.33;;;;;14.65;60.18;101486.69;4975831;28;45445;-85
2022/01/02 08:21:23;;;;;;;;;8.00;8.00;;;;;14.66;60.57;101487.59;4986373;28;45702;-85
2022/01/02 08:23:48;;;;;;;;;7.33;7.33;;;;;14.54;60.52;101486.38;4995352;28;45407;-87
2022/01/02 08:26:13;;;;;;;;;10.67;9.67;;;;;14.66;60.64;101492.97;4994746;28;58547;-89
2022/01/02 08:28:39;;;;;;;;;14.00;9.33;;;;;14.31;61.10;101437.34;4994997;28;45383;-90
2022/01/02 08:31:04;;;;;;;;;9.00;9.00;;;;;14.65;61.19;101501.94;4995427;28;45362;-88
2022/01/02 08:33:31;;;;;;;;;9.67;9.67;;;;;14.63;61.40;101493.09;4995114;28;45537;-87
2022/01/02 08:35:56;;;;;;;;;7.00;7.00;;;;;14.40;61.11;101452.13;4994926;28;46667;-90
2022/01/02 08:38:21;;;;;;;;;6.00;5.67;;;;;14.66;61.62;101487.59;4997059;27;45213;-85
2022/01/02 08:40:46;;;;;;;;;9.33;9.33;;;;;14.68;61.97;101501.78;4993837;28;45364;-86
2022/01/02 08:43:12;;;;;;;;;9.67;7.33;;;;;14.68;61.67;101494.63;4990789;28;45372;-92
2022/01/02 08:45:38;;;;;;;;;13.00;7.33;;;;;14.69;62.03;101495.47;5004926;28;47271;-85
2022/01/02 08:48:04;;;;;;;;;6.00;6.00;;;;;14.62;61.65;101486.84;5011397;28;45333;-88
2022/01/02 08:50:29;;;;;;;;;9.33;9.33;;;;;14.73;62.00;101502.44;5011291;28;45447;-87
2022/01/02 08:52:55;;;;;;;;;9.00;9.00;;;;;14.59;61.69;101481.66;4999666;28;45404;-89
2022/01/02 08:55:20;;;;;;;;;9.00;9.00;;;;;14.62;61.72;101488.69;5004454;28;45416;-85
2022/01/02 08:57:46;;;;;;;;;7.67;7.33;;;;;14.44;62.20;101467.13;5010629;28;45489;-92
2022/01/02 09:00:12;;;;;;;;;7.33;7.33;;;;;14.61;62.05;101509.28;4995423;28;45832;-88
2022/01/02 09:02:37;;;;;;;;;8.33;8.33;;;;;14.62;62.44;101502.09;5003692;28;45526;-86
2022/01/02 09:05:03;;;;;;;;;10.00;8.33;;;;;14.53;62.59;101485.44;4994970;28;45597;-87
2022/01/02 09:07:29;;;;;;;;;9.67;8.67;;;;;14.55;62.59;101493.47;4997843;28;45554;-86
2022/01/02 09:09:54;;;;;;;;;10.00;8.67;;;;;14.25;62.43;101448.34;5002880;28;45241;-86
2022/01/02 09:12:19;;;;;;;;;8.00;8.00;;;;;14.60;62.87;101504.84;5000968;27;45532;-86
2022/01/02 09:14:45;;;;;;;;;6.33;6.33;;;;;14.65;62.67;101512.66;4998739;28;46147;-89
2022/01/02 09:17:11;;;;;;;;;9.33;9.33;;;;;14.55;62.63;101502.38;5011094;28;45364;-90
2022/01/02 09:19:36;;;;;;;;;8.33;8.00;;;;;14.52;63.00;101502.50;5001639;27;45562;-90
2022/01/02 09:22:03;;;;;;;;;7.67;7.67;;;;;14.31;62.95;101474.91;4989931;28;46341;-89
2022/01/02 09:24:28;;;;;;;;;9.67;9.67;;;;;14.64;63.08;101519.00;4995596;28;47524;-82
2022/01/02 09:26:54;;;;;;;;;9.67;8.33;;;;;14.39;63.32;101482.56;4987747;28;45565;-85
2022/01/02 09:29:19;;;;;;;;;9.67;8.67;;;;;14.79;63.18;101547.75;4998559;28;45775;-81
2022/01/02 09:31:45;;;;;;;;;6.67;6.67;;;;;14.53;63.27;101495.31;4993702;28;45981;-82
2022/01/02 09:34:10;;;;;;;;;8.33;7.33;;;;;14.60;63.04;101502.16;4999190;28;45577;-82
2022/01/02 09:36:36;;;;;;;;;5.33;5.33;;;;;14.81;62.97;101547.69;5000310;28;45482;-84
2022/01/02 09:39:03;;;;;;;;;8.00;7.00;;;;;14.82;63.11;101534.19;5003887;28;45455;-86
2022/01/02 09:41:28;;;;;;;;;8.33;8.33;;;;;14.64;63.20;101500.22;4999777;28;45514;-85
2022/01/02 09:43:54;;;;;;;;;9.67;8.00;;;;;14.81;63.63;101529.75;4997689;28;45418;-85
2022/01/02 09:46:24;;;;;;;;;7.00;7.00;;;;;14.81;63.38;101535.13;5001143;28;45777;-84
2022/01/02 09:48:51;;;;;;;;;11.00;8.67;;;;;14.83;63.63;101530.56;5001808;28;45372;-87
2022/01/02 09:51:19;;;;;;;;;7.00;6.67;;;;;14.68;63.89;101504.47;5002726;28;45561;-85
2022/01/02 09:53:46;;;;;;;;;9.33;8.00;;;;;14.66;63.60;101501.88;5002927;28;45836;-83
2022/01/02 09:56:12;;;;;;;;;6.33;4.00;;;;;14.89;63.50;101532.06;5000899;28;45298;-84
2022/01/02 09:58:40;;;;;;;;;8.00;7.33;;;;;14.56;63.20;101463.88;4994773;28;45388;-84
2022/01/02 10:01:06;;;;;;;;;7.67;7.67;;;;;14.92;63.11;101521.19;5002945;28;45621;-84
2022/01/02 10:03:44;;;;;;;;;12.67;7.00;;;;;14.67;63.25;101484.81;5008728;28;47729;-84
2022/01/02 10:06:10;;;;;;;;;6.33;6.33;;;;;15.05;62.90;101529.50;5004063;28;45447;-84
2022/01/02 10:08:36;;;;;;;;;7.00;6.33;;;;;15.16;62.38;101544.13;4996806;28;46647;-84
2022/01/02 10:11:24;;;;;;;;;8.00;6.67;;;;;14.98;62.11;101515.50;4981636;28;45621;-85
2022/01/02 10:13:54;;;;;;;;;7.33;4.00;;;;;15.23;62.56;101543.81;4982822;28;46173;-85
2022/01/02 10:16:23;;;;;;;;;5.00;5.00;;;;;15.32;62.61;101541.53;4985438;28;45485;-85
2022/01/02 10:18:51;;;;;;;;;5.67;4.00;;;;;15.38;61.84;101538.56;4992938;27;45692;-82
2022/01/02 10:21:27;;;;;;;;;5.00;5.00;;;;;15.23;62.02;101501.72;4992889;27;45471;-85
2022/01/02 10:24:16;;;;;;;;;5.67;5.00;;;;;15.16;62.19;101477.00;5009507;27;45424;-85
2022/01/02 10:27:14;;;;;;;;;5.00;4.00;;;;;15.62;62.16;101536.41;4989120;28;45473;-86
2022/01/02 10:29:45;;;;;;;;;3.00;3.00;;;;;15.71;61.68;101542.25;4993669;28;45540;-86
2022/01/02 10:32:41;;;;;;;;;6.00;3.00;;;;;15.66;61.58;101530.84;5021846;27;45498;-86
2022/01/02 10:35:09;;;;;;;;;4.00;4.00;;;;;15.71;61.60;101553.00;5046771;27;46148;-85
2022/01/02 10:37:53;;;;;;;;;5.00;4.33;;;;;15.50;61.64;101504.81;4991882;28;45482;-86
2022/01/02 10:40:31;;;;;;;;;3.00;2.67;;;;;15.75;61.77;101542.03;4994507;27;45559;-85
2022/01/02 10:42:58;;;;;;;;;5.00;3.33;;;;;15.67;61.37;101528.09;4999940;27;45801;-84
2022/01/02 10:45:30;;;;;;;;;4.00;3.00;;;;;15.76;61.58;101533.03;5034671;27;48141;-86
2022/01/02 10:47:55;;;;;;;;;1.67;1.67;;;;;15.76;60.71;101529.47;4999169;27;45792;-84
2022/01/02 10:50:21;;;;;;;;;3.00;2.00;;;;;15.66;61.07;101504.84;5005166;28;45492;-86
2022/01/02 10:52:47;;;;;;;;;3.00;2.00;;;;;15.66;61.18;101501.28;4996391;28;45451;-85
2022/01/02 10:55:14;;;;;;;;;2.00;2.00;;;;;15.90;61.10;101534.13;4991464;28;45569;-84
2022/01/02 10:57:46;;;;;;;;;2.00;2.00;;;;;15.90;60.92;101548.44;5003359;28;45528;-84
2022/01/02 11:00:12;;;;;;;;;4.00;2.00;;;;;15.83;60.80;101518.31;5012052;27;45402;-85
2022/01/02 11:02:38;;;;;;;;;3.67;2.33;;;;;15.68;60.93;101492.19;4999563;27;45964;-86
2022/01/02 11:05:07;;;;;;;;;1.00;1.00;;;;;15.57;60.79;101468.59;4994382;27;45615;-85
2022/01/02 11:07:47;;;;;;;;;2.00;2.00;;;;;15.95;60.90;101532.91;4999955;28;45539;-87
2022/01/02 11:10:19;;;;;;;;;2.67;2.67;;;;;16.01;60.91;101547.84;4995090;27;45365;-89
2022/01/02 11:12:46;;;;;;;;;5.00;5.00;;;;;15.76;61.04;101495.41;5001883;28;45479;-91
2022/01/02 11:15:15;;;;;;;;;3.00;1.67;;;;;15.89;60.80;101508.19;5002247;28;48163;-87
2022/01/02 11:17:40;;;;;;;;;3.00;3.00;;;;;15.85;60.72;101495.84;5003607;28;45379;-88
2022/01/02 11:20:08;;;;;;;;;2.33;1.33;;;;;15.93;61.12;101510.63;5009121;28;45439;-87
2022/01/02 11:22:52;;;;;;;;;4.00;2.67;;;;;16.09;60.81;101537.56;5008003;28;45428;-91